Terminal Aerodrome Forecast
Issued by NWS La Crosse, WI

Home | Current Version | Previous Version | Text Only | Print | Product List | Glossary On
Versions: 1 2 3 4 5 6 7 8 9 10 11 12 13 14 15 16 17 18 19 20 21 22 23 24 25 26 27 28 29 30 31 32 33 34 35 36 37 38 39 40 41 42 43 44 45 46 47 48
000
FTUS43 KARX 192327
TAFLSE
TAF
KLSE 192327Z 2000/2024 32005KT P6SM FEW060
     FM200700 32003KT 5SM BR SKC
     FM200900 VRB03KT 1/4SM FG VV002
     FM201500 VRB04KT P6SM SCT012
     FM201800 22005KT P6SM BKN150=

USA.gov is the U.S. government's official web portal to all federal, state and local government web resources and services.